createdAt,value
2022-08-09T00:00:25.546Z,66.71
2022-08-09T00:01:25.588Z,67.08
2022-08-09T00:02:25.842Z,67.32
2022-08-09T00:04:05.590Z,67.60
2022-08-09T00:04:34.724Z,67.75
2022-08-09T00:06:18.957Z,67.67
2022-08-09T00:06:27.570Z,68.10
2022-08-09T00:07:25.435Z,68.15
2022-08-09T00:08:32.886Z,68.38
2022-08-09T00:09:25.434Z,68.52
2022-08-09T00:10:25.397Z,68.47
2022-08-09T00:12:02.597Z,68.66
2022-08-09T00:12:25.407Z,68.36
2022-08-09T00:13:25.411Z,68.32
2022-08-09T00:14:36.431Z,68.07
2022-08-09T00:15:26.475Z,67.99
2022-08-09T00:16:25.853Z,67.94
2022-08-09T00:18:05.710Z,67.91
2022-08-09T00:18:25.314Z,67.73
2022-08-09T00:19:25.281Z,67.67
2022-08-09T00:20:25.313Z,67.95
2022-08-09T00:21:25.273Z,67.70
2022-08-09T00:22:25.255Z,67.70
2022-08-09T00:23:55.082Z,67.17
2022-08-09T00:24:27.557Z,67.13
2022-08-09T00:25:32.085Z,67.42
2022-08-09T00:26:29.951Z,67.52
2022-08-09T00:27:25.198Z,67.38
2022-08-09T00:28:26.416Z,67.31
2022-08-09T00:30:16.546Z,67.20
2022-08-09T00:30:30.413Z,67.00
2022-08-09T00:31:55.862Z,67.14
2022-08-09T00:32:26.976Z,67.03
2022-08-09T00:33:32.742Z,67.33
2022-08-09T00:34:25.150Z,66.99
2022-08-09T00:35:25.081Z,66.86
2022-08-09T00:36:29.642Z,67.00
2022-08-09T00:37:25.076Z,67.07
2022-08-09T00:38:25.076Z,66.95
2022-08-09T00:40:12.231Z,67.03
2022-08-09T00:40:30.122Z,67.22
2022-08-09T00:44:11.235Z,67.23
2022-08-09T00:44:27.261Z,67.14
2022-08-09T00:44:33.200Z,67.00
2022-08-09T00:45:34.691Z,66.97
2022-08-09T00:46:56.641Z,66.67
2022-08-09T00:47:35.858Z,66.67
2022-08-09T00:48:32.895Z,66.77
2022-08-09T00:49:32.940Z,66.45
2022-08-09T00:50:32.893Z,66.44
2022-08-09T00:51:33.884Z,66.39
2022-08-09T00:52:33.089Z,66.40
2022-08-09T00:53:32.836Z,66.39
2022-08-09T00:54:35.129Z,66.09
2022-08-09T00:56:05.369Z,66.23
2022-08-09T00:56:32.816Z,65.97
2022-08-09T00:57:34.481Z,66.06
2022-08-09T00:58:32.847Z,65.87
2022-08-09T00:59:41.638Z,66.20
2022-08-09T01:00:32.767Z,66.24
2022-08-09T01:01:32.708Z,66.02
2022-08-09T01:02:32.939Z,66.40
2022-08-09T01:03:32.830Z,66.40
2022-08-09T01:04:32.697Z,66.46
2022-08-09T01:05:53.944Z,66.44
2022-08-09T01:06:53.132Z,66.57
2022-08-09T01:07:37.995Z,66.81
2022-08-09T01:08:32.650Z,66.40
2022-08-09T01:09:35.929Z,66.39
2022-08-09T01:10:32.618Z,66.37
2022-08-09T01:11:32.613Z,66.40
2022-08-09T01:12:32.848Z,66.49
2022-08-09T01:13:41.764Z,66.54
2022-08-09T01:14:32.578Z,66.44
2022-08-09T01:15:32.588Z,66.58
2022-08-09T01:16:32.590Z,66.50
2022-08-09T01:17:34.138Z,66.35
2022-08-09T01:18:32.497Z,66.49
2022-08-09T01:19:39.944Z,66.22
2022-08-09T01:20:32.480Z,66.20
2022-08-09T01:21:41.321Z,66.35
2022-08-09T01:22:32.898Z,66.48
2022-08-09T01:24:02.106Z,66.38
2022-08-09T01:24:32.442Z,66.55
2022-08-09T01:25:32.429Z,66.82
2022-08-09T01:26:32.423Z,66.59
2022-08-09T01:27:32.397Z,66.52
2022-08-09T01:28:32.389Z,66.64
2022-08-09T01:29:55.074Z,66.62
2022-08-09T01:30:51.338Z,66.95
2022-08-09T01:32:30.118Z,66.45
2022-08-09T01:32:38.295Z,66.58
2022-08-09T01:33:32.350Z,67.03
2022-08-09T01:34:32.322Z,66.67
2022-08-09T01:35:37.593Z,66.59
2022-08-09T01:36:32.292Z,66.86
2022-08-09T01:38:06.316Z,66.85
2022-08-09T01:38:32.268Z,66.83
2022-08-09T01:39:32.298Z,66.86
2022-08-09T01:40:32.222Z,66.90
2022-08-09T01:41:32.194Z,66.52
2022-08-09T01:42:32.450Z,66.28
2022-08-09T01:43:32.190Z,66.17
2022-08-09T01:44:32.215Z,66.20
2022-08-09T01:45:32.148Z,66.23
2022-08-09T01:46:32.394Z,66.43
2022-08-09T01:47:32.128Z,66.51
2022-08-09T01:48:32.106Z,66.49
2022-08-09T01:49:39.239Z,66.55
2022-08-09T01:50:37.203Z,66.54
2022-08-09T01:51:32.942Z,66.69
2022-08-09T01:52:32.385Z,66.84
2022-08-09T01:53:41.375Z,66.81
2022-08-09T01:54:32.970Z,66.87
2022-08-09T01:55:32.010Z,66.90
2022-08-09T01:56:32.003Z,67.03
2022-08-09T01:57:32.024Z,67.22
2022-08-09T01:58:31.987Z,67.16
2022-08-09T01:59:32.372Z,67.11
2022-08-09T02:00:35.897Z,67.19
2022-08-09T02:01:58.390Z,67.27
2022-08-09T02:02:32.886Z,67.58
2022-08-09T02:03:31.938Z,67.56
2022-08-09T02:04:32.097Z,67.69
2022-08-09T02:05:38.105Z,67.86
2022-08-09T02:06:32.340Z,67.89
2022-08-09T02:08:38.807Z,68.27
2022-08-09T02:08:58.636Z,68.37
2022-08-09T02:09:42.674Z,68.62
2022-08-09T02:10:31.826Z,68.78
2022-08-09T02:11:43.512Z,68.72
2022-08-09T02:12:31.934Z,68.83
2022-08-09T02:13:37.582Z,68.78
2022-08-09T02:14:31.799Z,68.83
2022-08-09T02:15:48.832Z,68.73
2022-08-09T02:16:35.291Z,68.64
2022-08-09T02:17:59.787Z,68.84
2022-08-09T02:18:31.730Z,68.97
2022-08-09T02:19:38.638Z,68.98
2022-08-09T02:20:32.889Z,69.12
2022-08-09T02:21:31.681Z,69.32
2022-08-09T02:22:34.976Z,69.34
2022-08-09T02:23:32.057Z,69.67
2022-08-09T02:24:31.639Z,69.78
2022-08-09T02:25:31.610Z,69.98
2022-08-09T02:26:31.614Z,70.08
2022-08-09T02:27:57.538Z,70.01
2022-08-09T02:28:31.571Z,70.24
2022-08-09T02:29:32.721Z,70.30
2022-08-09T02:30:31.564Z,70.46
2022-08-09T02:31:35.577Z,70.66
2022-08-09T02:32:31.678Z,70.68
2022-08-09T02:33:38.344Z,71.03
2022-08-09T02:34:40.631Z,71.47
2022-08-09T02:36:03.531Z,71.56
2022-08-09T02:36:31.514Z,71.77
2022-08-09T02:37:33.022Z,71.98
2022-08-09T02:38:31.459Z,72.31
2022-08-09T02:39:39.678Z,72.37
2022-08-09T02:40:31.473Z,72.34
2022-08-09T02:41:31.406Z,72.28
2022-08-09T02:42:31.773Z,72.07
2022-08-09T02:43:31.402Z,72.06
2022-08-09T02:44:31.398Z,71.92
2022-08-09T02:45:31.356Z,72.05
2022-08-09T02:46:31.339Z,71.72
2022-08-09T02:47:33.939Z,71.69
2022-08-09T02:48:31.623Z,71.63
2022-08-09T02:49:40.928Z,71.59
2022-08-09T02:50:31.275Z,71.43
2022-08-09T02:51:37.071Z,71.34
2022-08-09T02:52:31.480Z,71.22
2022-08-09T02:53:31.278Z,71.14
2022-08-09T02:54:31.631Z,71.08
2022-08-09T02:55:46.372Z,70.95
2022-08-09T02:56:31.180Z,70.74
2022-08-09T02:57:31.183Z,70.76
2022-08-09T02:58:35.629Z,70.58
2022-08-09T02:59:36.567Z,70.71
2022-08-09T03:00:31.157Z,70.55
2022-08-09T03:01:43.331Z,70.43
2022-08-09T03:02:31.447Z,70.48
2022-08-09T03:04:13.205Z,70.55
2022-08-09T03:04:31.104Z,70.59
2022-08-09T03:05:34.704Z,70.51
2022-08-09T03:06:31.074Z,70.41
2022-08-09T03:07:31.054Z,70.44
2022-08-09T03:08:31.031Z,70.44
2022-08-09T03:09:33.743Z,70.55
2022-08-09T03:10:31.016Z,70.06
2022-08-09T03:12:10.506Z,70.02
2022-08-09T03:12:31.185Z,70.05
2022-08-09T03:13:43.941Z,70.04
2022-08-09T03:14:30.948Z,70.07
2022-08-09T03:15:40.440Z,70.03
2022-08-09T03:16:30.923Z,69.99
2022-08-09T03:17:30.913Z,69.96
2022-08-09T03:18:31.191Z,70.00
2022-08-09T03:19:59.204Z,69.92
2022-08-09T03:20:30.874Z,69.81
2022-08-09T03:21:36.613Z,69.69
2022-08-09T03:22:31.084Z,69.73
2022-08-09T03:23:30.813Z,69.90
2022-08-09T03:24:31.488Z,70.06
2022-08-09T03:25:58.597Z,70.12
2022-08-09T03:26:32.067Z,70.37
2022-08-09T03:27:30.777Z,69.97
2022-08-09T03:28:30.753Z,70.11
2022-08-09T03:29:30.741Z,70.23
2022-08-09T03:30:34.072Z,69.96
2022-08-09T03:31:30.732Z,69.57
2022-08-09T03:32:31.069Z,69.61
2022-08-09T03:33:54.046Z,69.50
2022-08-09T03:34:30.685Z,69.48
2022-08-09T03:35:44.340Z,69.38
2022-08-09T03:36:30.661Z,69.41
2022-08-09T03:37:57.101Z,69.51
2022-08-09T03:38:30.714Z,69.44
2022-08-09T03:39:37.822Z,69.55
2022-08-09T03:40:30.887Z,69.40
2022-08-09T03:41:48.391Z,69.54
2022-08-09T03:42:30.901Z,69.48
2022-08-09T03:43:31.694Z,69.13
2022-08-09T03:44:32.057Z,69.12
2022-08-09T03:46:03.859Z,69.16
2022-08-09T03:46:30.542Z,69.39
2022-08-09T03:47:30.489Z,69.49
2022-08-09T03:48:30.992Z,69.39
2022-08-09T03:49:35.637Z,69.36
2022-08-09T03:50:32.028Z,69.35
2022-08-09T03:51:43.866Z,69.28
2022-08-09T03:52:30.631Z,69.12
2022-08-09T03:53:32.174Z,69.13
2022-08-09T03:54:31.325Z,69.28
2022-08-09T03:55:36.132Z,69.47
2022-08-09T03:56:30.388Z,69.06
2022-08-09T03:57:30.377Z,69.12
2022-08-09T03:58:30.369Z,69.31
2022-08-09T03:59:43.227Z,69.40
2022-08-09T04:00:30.357Z,69.11
2022-08-09T04:01:30.306Z,69.35
2022-08-09T04:02:30.726Z,69.24
2022-08-09T04:03:46.101Z,69.34
2022-08-09T04:04:36.277Z,69.57
2022-08-09T04:05:32.292Z,69.70
2022-08-09T04:06:30.251Z,69.89
2022-08-09T04:07:33.790Z,69.49
2022-08-09T04:08:30.244Z,69.51
2022-08-09T04:09:48.170Z,69.55
2022-08-09T04:10:30.595Z,69.47
2022-08-09T04:11:30.180Z,69.46
2022-08-09T04:12:31.678Z,69.67
2022-08-09T04:14:36.666Z,69.50
2022-08-09T04:15:00.646Z,69.38
2022-08-09T04:15:52.400Z,69.34
2022-08-09T04:16:30.139Z,69.59
2022-08-09T04:17:30.117Z,69.45
2022-08-09T04:18:30.096Z,69.62
2022-08-09T04:19:50.969Z,69.53
2022-08-09T04:20:30.073Z,69.99
2022-08-09T04:21:30.066Z,69.94
2022-08-09T04:22:30.293Z,69.84
2022-08-09T04:23:30.039Z,69.76
2022-08-09T04:24:30.031Z,69.72
2022-08-09T04:25:30.006Z,69.71
2022-08-09T04:26:35.059Z,69.35
2022-08-09T04:27:30.001Z,69.09
2022-08-09T04:28:32.943Z,69.17
2022-08-09T04:29:30.105Z,69.16
2022-08-09T04:30:29.947Z,69.11
2022-08-09T04:31:37.583Z,69.06
2022-08-09T04:32:34.114Z,69.15
2022-08-09T04:33:29.911Z,69.33
2022-08-09T04:34:31.694Z,69.28
2022-08-09T04:35:32.856Z,69.10
2022-08-09T04:36:29.856Z,69.02
2022-08-09T04:37:45.226Z,68.81
2022-08-09T04:38:29.856Z,68.86
2022-08-09T04:39:30.884Z,68.72
2022-08-09T04:40:36.131Z,69.07
2022-08-09T04:41:33.026Z,68.41
2022-08-09T04:42:30.106Z,68.48
2022-08-09T04:43:29.777Z,68.49
2022-08-09T04:44:29.789Z,68.43
2022-08-09T04:45:30.601Z,68.16
2022-08-09T04:46:36.450Z,68.05
2022-08-09T04:47:33.179Z,67.88
2022-08-09T04:48:33.502Z,68.01
2022-08-09T04:49:40.430Z,68.04
2022-08-09T04:50:31.890Z,68.17
2022-08-09T04:51:29.666Z,68.22
2022-08-09T04:52:29.804Z,68.27
2022-08-09T04:53:31.459Z,68.31
2022-08-09T04:54:29.613Z,68.23
2022-08-09T04:55:38.337Z,68.37
2022-08-09T04:56:29.617Z,68.35
2022-08-09T04:57:58.596Z,68.35
2022-08-09T04:58:31.685Z,68.61
2022-08-09T04:59:30.132Z,68.42
2022-08-09T05:00:31.788Z,68.30
2022-08-09T05:01:29.512Z,68.56
2022-08-09T05:02:29.508Z,68.67
2022-08-09T05:03:40.979Z,68.64
2022-08-09T05:04:30.650Z,68.33
2022-08-09T05:05:31.851Z,68.48
2022-08-09T05:06:32.640Z,68.14
2022-08-09T05:07:32.014Z,68.58
2022-08-09T05:08:29.499Z,68.25
2022-08-09T05:09:42.021Z,68.44
2022-08-09T05:10:29.397Z,68.49
2022-08-09T05:11:32.170Z,68.24
2022-08-09T05:12:29.390Z,68.12
2022-08-09T05:13:29.362Z,68.22
2022-08-09T05:14:29.342Z,68.42
2022-08-09T05:15:39.405Z,68.32
2022-08-09T05:16:31.980Z,68.36
2022-08-09T05:18:38.719Z,68.06
2022-08-09T05:18:59.052Z,67.99
2022-08-09T05:19:38.406Z,68.12
2022-08-09T05:20:29.937Z,68.23
2022-08-09T05:21:29.964Z,68.03
2022-08-09T05:22:35.109Z,67.92
2022-08-09T05:24:01.622Z,67.61
2022-08-09T05:24:29.233Z,67.59
2022-08-09T05:25:32.412Z,67.51
2022-08-09T05:26:36.743Z,67.74
2022-08-09T05:27:31.019Z,67.54
2022-08-09T05:28:29.190Z,67.63
2022-08-09T05:29:31.514Z,67.39
2022-08-09T05:30:31.184Z,67.38
2022-08-09T05:31:44.427Z,67.29
2022-08-09T05:32:30.053Z,67.58
2022-08-09T05:33:33.174Z,67.34
2022-08-09T05:34:30.843Z,67.47
2022-08-09T05:35:29.071Z,67.50
2022-08-09T05:36:29.096Z,67.31
2022-08-09T05:37:29.040Z,67.46
2022-08-09T05:38:29.048Z,67.07
2022-08-09T05:39:35.855Z,67.07
2022-08-09T05:40:29.065Z,67.10
2022-08-09T05:41:29.063Z,67.02
2022-08-09T05:42:28.991Z,66.81
2022-08-09T05:43:31.974Z,66.70
2022-08-09T05:44:32.785Z,66.59
2022-08-09T05:45:52.545Z,66.78
2022-08-09T05:46:28.944Z,66.43
2022-08-09T05:47:30.407Z,66.67
2022-08-09T05:48:33.241Z,66.46
2022-08-09T05:50:29.980Z,67.14
2022-08-09T05:50:57.061Z,66.84
2022-08-09T05:51:42.828Z,66.66
2022-08-09T05:52:31.630Z,66.29
2022-08-09T05:53:33.398Z,66.43
2022-08-09T05:54:28.844Z,66.55
2022-08-09T05:55:28.850Z,65.89
2022-08-09T05:56:28.841Z,65.46
2022-08-09T05:57:50.890Z,65.69
2022-08-09T05:58:28.769Z,65.72
2022-08-09T05:59:28.775Z,65.46
2022-08-09T06:00:29.576Z,65.70
2022-08-09T06:01:33.631Z,65.44
2022-08-09T06:02:28.814Z,65.30
2022-08-09T06:03:34.879Z,65.45
2022-08-09T06:04:35.080Z,65.62
2022-08-09T06:05:31.255Z,65.73
2022-08-09T06:06:28.689Z,65.40
2022-08-09T06:07:28.667Z,65.64
2022-08-09T06:08:28.656Z,65.73
2022-08-09T06:09:54.160Z,65.86
2022-08-09T06:10:28.611Z,65.25
2022-08-09T06:11:40.858Z,65.59
2022-08-09T06:12:28.683Z,65.51
2022-08-09T06:13:33.792Z,65.97
2022-08-09T06:14:28.620Z,65.72
2022-08-09T06:15:28.552Z,64.85
2022-08-09T06:16:28.547Z,64.68
2022-08-09T06:17:40.284Z,64.74
2022-08-09T06:18:28.521Z,65.05
2022-08-09T06:19:28.503Z,64.97
2022-08-09T06:20:28.495Z,65.42
2022-08-09T06:21:28.492Z,65.09
2022-08-09T06:22:28.996Z,64.99
2022-08-09T06:23:57.461Z,65.28
2022-08-09T06:24:28.444Z,64.64
2022-08-09T06:25:28.432Z,65.09
2022-08-09T06:26:28.949Z,64.79
2022-08-09T06:27:42.329Z,64.49
2022-08-09T06:28:32.044Z,64.56
2022-08-09T06:29:28.375Z,64.68
2022-08-09T06:30:28.336Z,64.93
2022-08-09T06:31:31.175Z,64.70
2022-08-09T06:33:13.376Z,64.60
2022-08-09T06:33:52.987Z,64.55
2022-08-09T06:34:30.751Z,64.74
2022-08-09T06:35:56.482Z,64.89
2022-08-09T06:36:29.898Z,64.60
2022-08-09T06:37:28.860Z,63.69
2022-08-09T06:38:32.103Z,64.15
2022-08-09T06:39:48.232Z,63.91
2022-08-09T06:40:28.293Z,63.85
2022-08-09T06:41:58.856Z,63.22
2022-08-09T06:42:30.549Z,62.77
2022-08-09T06:43:34.063Z,62.38
2022-08-09T06:44:28.197Z,61.70
2022-08-09T06:46:07.785Z,61.83
2022-08-09T06:46:40.176Z,62.43
2022-08-09T06:47:30.082Z,62.65
2022-08-09T06:48:30.938Z,62.48
2022-08-09T06:49:45.163Z,62.74
2022-08-09T06:50:28.162Z,63.05
2022-08-09T06:51:28.320Z,62.56
2022-08-09T06:52:28.048Z,62.10
2022-08-09T06:53:33.395Z,61.71
2022-08-09T06:54:28.052Z,62.34
2022-08-09T06:55:28.028Z,62.03
2022-08-09T06:56:30.821Z,61.81
2022-08-09T06:58:01.640Z,61.01
2022-08-09T06:58:40.625Z,61.12
2022-08-09T07:00:59.845Z,61.17
2022-08-09T07:01:05.495Z,60.57
2022-08-09T07:02:05.552Z,60.42
2022-08-09T07:03:06.186Z,60.52
2022-08-09T07:04:05.431Z,60.30
2022-08-09T07:05:05.421Z,60.24
2022-08-09T07:06:05.597Z,60.29
2022-08-09T07:07:05.397Z,60.45
2022-08-09T07:08:05.379Z,60.64
2022-08-09T07:09:05.385Z,59.83
2022-08-09T07:10:14.246Z,60.01
2022-08-09T07:11:06.540Z,59.48
2022-08-09T07:12:05.334Z,59.82
2022-08-09T07:13:27.674Z,59.01
2022-08-09T07:14:06.347Z,59.12
2022-08-09T07:16:36.695Z,59.92
2022-08-09T07:16:48.155Z,59.65
2022-08-09T07:17:05.261Z,60.13
2022-08-09T07:18:05.235Z,59.96
2022-08-09T07:19:05.280Z,59.81
2022-08-09T07:20:05.193Z,60.14
2022-08-09T07:21:07.662Z,60.16
2022-08-09T07:22:05.202Z,59.49
2022-08-09T07:23:18.248Z,59.52
2022-08-09T07:24:05.186Z,59.63
2022-08-09T07:25:09.810Z,59.51
2022-08-09T07:26:05.152Z,59.69
2022-08-09T07:27:10.893Z,59.44
2022-08-09T07:28:05.120Z,59.46
2022-08-09T07:29:13.116Z,58.49
2022-08-09T07:30:05.503Z,58.55
2022-08-09T07:31:05.104Z,58.37
2022-08-09T07:32:05.052Z,58.00
2022-08-09T07:33:10.281Z,57.46
2022-08-09T07:34:05.166Z,57.56
2022-08-09T07:35:10.062Z,57.09
2022-08-09T07:36:05.018Z,57.12
2022-08-09T07:37:04.987Z,57.19
2022-08-09T07:38:05.017Z,58.22
2022-08-09T07:39:05.038Z,58.17
2022-08-09T07:40:05.176Z,58.69
2022-08-09T07:41:13.157Z,58.64
2022-08-09T07:42:05.110Z,59.06
2022-08-09T07:43:14.725Z,58.67
2022-08-09T07:44:04.922Z,58.61
2022-08-09T07:45:06.488Z,58.51
2022-08-09T07:46:04.858Z,57.66
2022-08-09T07:47:04.893Z,57.65
2022-08-09T07:48:05.236Z,57.80
2022-08-09T07:49:04.813Z,58.12
2022-08-09T07:50:08.525Z,57.47
2022-08-09T07:52:02.445Z,57.81
2022-08-09T07:52:17.718Z,57.43
2022-08-09T07:53:05.235Z,56.82
2022-08-09T07:54:08.468Z,56.99
2022-08-09T07:55:09.732Z,56.13
2022-08-09T07:56:06.666Z,56.41
2022-08-09T07:57:04.748Z,56.30
2022-08-09T07:58:04.726Z,55.85
2022-08-09T07:59:10.505Z,55.95
2022-08-09T08:00:04.685Z,56.14
2022-08-09T08:01:06.666Z,55.19
2022-08-09T08:02:04.905Z,54.91
2022-08-09T08:03:08.033Z,54.25
2022-08-09T08:04:04.641Z,53.87
2022-08-09T08:05:04.675Z,53.65
2022-08-09T08:06:04.621Z,53.26
2022-08-09T08:07:27.211Z,53.43
2022-08-09T08:09:07.729Z,54.30
2022-08-09T08:09:51.796Z,55.19
2022-08-09T08:10:15.425Z,53.92
2022-08-09T08:12:25.010Z,54.64
2022-08-09T08:12:32.819Z,53.20
2022-08-09T08:13:15.352Z,53.41
2022-08-09T08:14:15.335Z,53.46
2022-08-09T08:15:16.877Z,53.63
2022-08-09T08:16:29.754Z,53.05
2022-08-09T08:17:35.243Z,52.31
2022-08-09T08:18:16.382Z,51.81
2022-08-09T08:19:15.274Z,51.29
2022-08-09T08:20:15.287Z,51.22
2022-08-09T08:21:15.248Z,51.40
2022-08-09T08:22:15.228Z,49.47
2022-08-09T08:23:16.610Z,49.48
2022-08-09T08:24:16.704Z,48.97
2022-08-09T08:25:15.552Z,50.03
2022-08-09T08:26:15.184Z,49.36
2022-08-09T08:27:16.856Z,48.95
2022-08-09T08:28:15.525Z,49.32
2022-08-09T08:29:15.149Z,49.10
2022-08-09T08:30:15.176Z,49.14
2022-08-09T08:31:15.452Z,48.18
2022-08-09T08:32:24.538Z,47.53
2022-08-09T08:33:23.233Z,47.58
2022-08-09T08:34:15.082Z,46.81
2022-08-09T08:35:18.147Z,47.99
2022-08-09T08:36:28.380Z,47.67
2022-08-09T08:37:17.660Z,47.30
2022-08-09T08:38:15.039Z,46.72
2022-08-09T08:39:15.086Z,45.61
2022-08-09T08:40:15.014Z,45.73
2022-08-09T08:41:15.001Z,45.03
2022-08-09T08:42:15.801Z,44.07
2022-08-09T08:43:14.987Z,44.11
2022-08-09T08:44:14.973Z,44.80
2022-08-09T08:45:14.952Z,44.60
2022-08-09T08:46:32.389Z,45.05
2022-08-09T08:47:15.127Z,43.33
2022-08-09T08:48:16.834Z,42.73
2022-08-09T08:49:19.132Z,42.31
2022-08-09T08:50:15.532Z,42.40
2022-08-09T08:51:14.898Z,42.61
2022-08-09T08:52:41.479Z,41.63
2022-08-09T08:53:21.661Z,42.38
2022-08-09T08:54:20.192Z,43.56
2022-08-09T08:55:15.377Z,43.44
2022-08-09T08:56:28.226Z,43.15
2022-08-09T08:57:14.809Z,43.66
2022-08-09T08:58:14.804Z,42.25
2022-08-09T08:59:19.341Z,41.22
2022-08-09T09:00:27.232Z,41.26
2022-08-09T09:01:19.673Z,40.68
2022-08-09T09:02:14.808Z,40.09
2022-08-09T09:03:22.806Z,41.28
2022-08-09T09:04:14.808Z,41.58
2022-08-09T09:05:14.721Z,41.99
2022-08-09T09:06:14.708Z,42.04
2022-08-09T09:07:14.678Z,42.83
2022-08-09T09:08:29.779Z,41.27
2022-08-09T09:09:21.006Z,41.76
2022-08-09T09:10:14.661Z,41.15
2022-08-09T09:11:17.617Z,41.08
2022-08-09T09:12:16.963Z,41.24
2022-08-09T09:13:15.106Z,41.61
2022-08-09T09:14:15.817Z,41.69
2022-08-09T09:15:28.356Z,41.26
2022-08-09T09:16:14.590Z,39.95
2022-08-09T09:17:16.369Z,40.43
2022-08-09T09:18:14.603Z,39.28
2022-08-09T09:19:37.093Z,39.22
2022-08-09T09:20:15.436Z,40.47
2022-08-09T09:21:14.518Z,40.67
2022-08-09T09:22:15.877Z,40.43
2022-08-09T09:23:14.523Z,39.12
2022-08-09T09:24:21.872Z,39.17
2022-08-09T09:26:03.656Z,39.66
2022-08-09T09:26:17.110Z,40.13
2022-08-09T09:28:04.421Z,40.80
2022-08-09T09:28:14.509Z,41.19
2022-08-09T09:29:16.872Z,39.39
2022-08-09T09:31:17.277Z,40.51
2022-08-09T09:32:15.838Z,39.57
2022-08-09T09:33:16.590Z,38.79
2022-08-09T09:34:15.154Z,37.48
2022-08-09T09:35:15.783Z,36.85
2022-08-09T09:36:20.412Z,37.02
2022-08-09T09:37:14.352Z,37.25
2022-08-09T09:38:18.460Z,37.13
2022-08-09T09:39:14.497Z,36.48
2022-08-09T09:40:14.470Z,36.59
2022-08-09T09:41:14.309Z,36.53
2022-08-09T09:42:14.288Z,37.30
2022-08-09T09:43:14.285Z,37.73
2022-08-09T09:44:25.173Z,39.37
2022-08-09T09:45:25.799Z,39.85
2022-08-09T09:47:14.267Z,40.27
2022-08-09T09:48:14.472Z,40.02
2022-08-09T09:49:14.229Z,39.52
2022-08-09T09:50:17.598Z,38.32
2022-08-09T09:51:26.179Z,38.14
2022-08-09T09:52:35.640Z,36.65
2022-08-09T09:53:14.214Z,35.99
2022-08-09T09:54:20.482Z,35.68
2022-08-09T09:55:24.425Z,34.86
2022-08-09T09:56:19.784Z,36.37
2022-08-09T09:58:02.605Z,36.46
2022-08-09T09:58:17.026Z,34.75
2022-08-09T09:59:14.122Z,34.74
2022-08-09T10:00:14.102Z,35.48
2022-08-09T10:01:31.152Z,34.84
2022-08-09T10:02:14.049Z,33.56
2022-08-09T10:03:14.242Z,34.29
2022-08-09T10:04:15.982Z,33.93
2022-08-09T10:05:14.042Z,34.23
2022-08-09T10:06:14.031Z,35.07
2022-08-09T10:07:14.011Z,35.57
2022-08-09T10:08:28.444Z,35.85
2022-08-09T10:09:23.402Z,33.94
2022-08-09T10:10:14.019Z,33.27
2022-08-09T10:11:58.927Z,33.84
2022-08-09T10:12:43.659Z,35.38
2022-08-09T10:13:13.934Z,35.58
2022-08-09T10:14:13.930Z,35.06
2022-08-09T10:15:17.451Z,35.43
2022-08-09T10:16:57.132Z,35.43
2022-08-09T10:17:51.098Z,36.77
2022-08-09T10:18:13.888Z,36.83
2022-08-09T10:19:13.873Z,37.40
2022-08-09T10:20:15.281Z,36.11
2022-08-09T10:21:13.839Z,35.15
2022-08-09T10:22:13.817Z,35.09
2022-08-09T10:23:13.840Z,34.71
2022-08-09T10:24:16.009Z,34.85
2022-08-09T10:25:14.655Z,34.25
2022-08-09T10:26:13.800Z,33.77
2022-08-09T10:27:18.201Z,34.22
2022-08-09T10:28:13.783Z,35.33
2022-08-09T10:29:37.144Z,35.40
2022-08-09T10:32:38.318Z,34.66
2022-08-09T10:34:04.294Z,34.56
2022-08-09T10:34:33.247Z,34.58
2022-08-09T10:35:13.708Z,34.53
2022-08-09T10:36:13.734Z,33.32
2022-08-09T10:37:13.931Z,33.58
2022-08-09T10:38:34.350Z,32.96
2022-08-09T10:39:16.188Z,32.58
2022-08-09T10:40:33.704Z,32.24
2022-08-09T10:41:13.654Z,32.35
2022-08-09T10:42:13.616Z,33.82
2022-08-09T10:43:13.599Z,33.45
2022-08-09T10:44:13.625Z,32.81
2022-08-09T10:45:16.579Z,32.84
2022-08-09T10:46:20.039Z,34.75
2022-08-09T10:48:12.783Z,33.76
2022-08-09T10:48:31.363Z,33.79
2022-08-09T10:49:13.531Z,33.61
2022-08-09T10:50:15.023Z,34.40
2022-08-09T10:51:13.705Z,34.11
2022-08-09T10:52:14.758Z,33.55
2022-08-09T10:53:13.511Z,33.28
2022-08-09T10:54:13.474Z,33.71
2022-08-09T10:55:13.504Z,33.89
2022-08-09T10:56:13.469Z,33.28
2022-08-09T10:57:13.452Z,32.52
2022-08-09T10:58:17.169Z,31.88
2022-08-09T10:59:13.427Z,31.31
2022-08-09T11:00:13.424Z,31.38
2022-08-09T11:03:13.339Z,30.64
2022-08-09T11:03:46.788Z,29.72
2022-08-09T11:04:02.128Z,30.22
2022-08-09T11:04:34.593Z,30.74
2022-08-09T11:05:34.564Z,31.11
2022-08-09T11:06:34.545Z,32.02
2022-08-09T11:07:57.038Z,33.87
2022-08-09T11:08:34.531Z,32.82
2022-08-09T11:09:36.688Z,32.68
2022-08-09T11:10:34.486Z,32.94
2022-08-09T11:11:34.497Z,32.98
2022-08-09T11:12:34.925Z,33.15
2022-08-09T11:13:54.234Z,33.59
2022-08-09T11:14:34.462Z,33.80
2022-08-09T11:15:38.504Z,34.48
2022-08-09T11:16:35.717Z,34.34
2022-08-09T11:17:34.421Z,34.57
2022-08-09T11:18:34.404Z,35.85
2022-08-09T11:20:11.229Z,36.43
2022-08-09T11:20:34.378Z,37.57
2022-08-09T11:21:34.362Z,37.58
2022-08-09T11:22:34.390Z,37.25
2022-08-09T11:23:34.352Z,37.39
2022-08-09T11:24:34.325Z,38.39
2022-08-09T11:25:44.976Z,38.95
2022-08-09T11:26:34.325Z,38.83
2022-08-09T11:28:04.333Z,38.42
2022-08-09T11:28:38.859Z,37.93
2022-08-09T11:30:04.512Z,38.54
2022-08-09T11:30:36.004Z,36.38
2022-08-09T11:31:36.510Z,34.64
2022-08-09T11:32:34.518Z,34.42
2022-08-09T11:33:34.226Z,33.27
2022-08-09T11:34:34.839Z,31.99
2022-08-09T11:35:35.320Z,31.71
2022-08-09T11:36:35.335Z,30.77
2022-08-09T11:37:40.900Z,31.47
2022-08-09T11:38:34.915Z,33.51
2022-08-09T11:39:38.748Z,32.70
2022-08-09T11:40:34.156Z,31.19
2022-08-09T11:41:37.542Z,31.68
2022-08-09T11:42:34.511Z,30.83
2022-08-09T11:43:34.115Z,31.45
2022-08-09T11:44:34.087Z,30.72
2022-08-09T11:45:42.197Z,32.89
2022-08-09T11:46:34.085Z,34.03
2022-08-09T11:47:34.053Z,34.99
2022-08-09T11:48:34.048Z,34.27
2022-08-09T11:49:42.955Z,33.70
2022-08-09T11:52:49.044Z,33.13
2022-08-09T11:54:01.398Z,32.65
2022-08-09T11:54:13.478Z,33.78
2022-08-09T11:54:28.692Z,33.10
2022-08-09T11:55:21.752Z,32.52
2022-08-09T11:56:19.647Z,33.65
2022-08-09T11:57:28.328Z,34.70
2022-08-09T11:58:19.551Z,33.04
2022-08-09T11:59:19.444Z,32.49
2022-08-09T12:00:24.288Z,31.91
2022-08-09T12:02:15.737Z,31.92
2022-08-09T12:02:37.260Z,30.40
2022-08-09T12:03:54.789Z,30.30
2022-08-09T12:04:20.841Z,30.47
2022-08-09T12:05:22.660Z,30.10
2022-08-09T12:06:26.453Z,30.42
2022-08-09T12:07:19.375Z,29.83
2022-08-09T12:08:19.837Z,31.23
2022-08-09T12:09:20.916Z,31.85
2022-08-09T12:10:38.304Z,31.98
2022-08-09T12:11:19.323Z,32.59
2022-08-09T12:12:20.599Z,33.56
2022-08-09T12:14:07.509Z,33.74
2022-08-09T12:14:28.794Z,34.99
2022-08-09T12:15:22.262Z,35.76
2022-08-09T12:16:30.979Z,37.13
2022-08-09T12:17:34.258Z,36.67
2022-08-09T12:18:29.901Z,36.80
2022-08-09T12:19:19.209Z,35.65
2022-08-09T12:20:21.534Z,36.05
2022-08-09T12:21:28.597Z,35.59
2022-08-09T12:22:19.181Z,33.83
2022-08-09T12:23:24.555Z,33.50
2022-08-09T12:24:19.156Z,33.32
2022-08-09T12:25:36.335Z,31.78
2022-08-09T12:26:19.875Z,31.60
2022-08-09T12:29:15.301Z,32.63
2022-08-09T12:29:52.434Z,33.19
2022-08-09T12:30:35.175Z,34.38
2022-08-09T12:30:45.024Z,35.05
2022-08-09T12:32:01.984Z,36.03
2022-08-09T12:32:45.014Z,35.68
2022-08-09T12:33:59.462Z,35.88
2022-08-09T12:34:44.963Z,35.13
2022-08-09T12:35:45.012Z,34.92
2022-08-09T12:36:44.934Z,34.50
2022-08-09T12:37:50.141Z,33.86
2022-08-09T12:38:44.961Z,32.90
2022-08-09T12:39:45.039Z,31.06
2022-08-09T12:40:44.935Z,30.35
2022-08-09T12:41:44.882Z,29.93
2022-08-09T12:42:44.882Z,30.59
2022-08-09T12:44:06.841Z,30.16
2022-08-09T12:44:46.224Z,30.87
2022-08-09T12:45:44.835Z,32.23
2022-08-09T12:46:49.262Z,32.50
2022-08-09T12:47:50.363Z,33.18
2022-08-09T12:48:44.788Z,33.29
2022-08-09T12:49:51.102Z,33.02
2022-08-09T12:50:44.798Z,32.54
2022-08-09T12:52:00.149Z,31.86
2022-08-09T12:53:08.459Z,31.80
2022-08-09T12:53:52.863Z,32.17
2022-08-09T12:54:44.738Z,33.03
2022-08-09T12:56:15.951Z,34.03
2022-08-09T12:56:48.494Z,34.92
2022-08-09T12:57:46.193Z,34.96
2022-08-09T12:58:45.917Z,34.99
2022-08-09T13:00:02.900Z,35.28